KALB/ALB METAR and TAF weather

Enter ICAO airport designator
Station Type Date Time Source
KALB METAR 2022/06/27 17:51 UTC NOAA

KALB 271751Z 28010KT 10SM FEW050 FEW120 SCT150 BKN250 26/13 A2993 RMK AO2 SLP135 60023 T02560133 10261 20206 51010


Station Type Date Time Source
KALB Decoded METAR 2022/06/27 17:51 UTC NOAA

ALBANY INTERNATIONAL AIRPORT, NY, United States (KALB) 42-45N 73-48W
Jun 27, 2022 - 01:51 PM EDT / 2022.06.27 1751 UTC
Wind: from the W (280 degrees) at 12 MPH (10 KT):0
Visibility: 10 mile(s):0
Sky conditions: mostly cloudy
Temperature: 78.1 F (25.6 C)
Dew Point: 55.9 F (13.3 C)
Relative Humidity: 46%
Pressure (altimeter): 29.93 in. Hg (1013 hPa)
Pressure tendency: 0.03 inches (1.0 hPa) higher than three hours ago
ob: KALB 271751Z 28010KT 10SM FEW050 FEW120 SCT150 BKN250 26/13 A2993 RMK AO2 SLP135 60023 T02560133 10261 20206 51010
cycle: 18

Station Type Date Time Source
KALB TAF 2022/06/27 18:27 UTC NOAA

TAF KALB 271724Z 2718/2818 29014G21KT P6SM SCT100 BKN250
FM280000 29005KT P6SM SCT250
FM280900 29003KT P6SM BKN050
FM281600 31005KT P6SM SCT050

Example: see airport list